createdAt,value
2018-08-07T00:01:59.847Z,24.80
2018-08-07T00:04:27.990Z,24.80
2018-08-07T00:06:56.114Z,24.80
2018-08-07T00:11:52.150Z,24.80
2018-08-07T00:14:20.271Z,24.80
2018-08-07T00:16:48.391Z,24.80
2018-08-07T00:21:44.446Z,24.70
2018-08-07T00:24:12.561Z,24.60
2018-08-07T00:26:40.677Z,24.60
2018-08-07T00:31:36.722Z,24.40
2018-08-07T00:34:04.822Z,24.40
2018-08-07T00:36:32.965Z,24.30
2018-08-07T00:39:01.077Z,24.20
2018-08-07T00:41:29.191Z,24.20
2018-08-07T00:43:57.348Z,24.20
2018-08-07T00:46:25.476Z,24.20
2018-08-07T00:48:53.570Z,24.20
2018-08-07T00:51:21.694Z,24.10
2018-08-07T00:56:17.758Z,24.00
2018-08-07T00:58:45.879Z,24.00
2018-08-07T01:01:14.018Z,23.90
2018-08-07T01:03:42.147Z,23.90
2018-08-07T01:06:10.289Z,23.80
2018-08-07T01:08:38.391Z,23.90
2018-08-07T01:11:06.979Z,23.90
2018-08-07T01:13:35.070Z,23.80
2018-08-07T01:16:03.200Z,23.80
2018-08-07T01:18:31.312Z,23.80
2018-08-07T01:20:59.427Z,23.70
2018-08-07T01:23:27.561Z,23.60
2018-08-07T01:25:55.709Z,23.60
2018-08-07T01:28:23.807Z,23.60
2018-08-07T01:30:51.910Z,23.60
2018-08-07T01:33:20.052Z,23.60
2018-08-07T01:35:48.161Z,23.50
2018-08-07T01:38:16.269Z,23.50
2018-08-07T01:40:44.454Z,23.40
2018-08-07T01:43:12.545Z,23.40
2018-08-07T01:45:40.683Z,23.30
2018-08-07T01:48:08.810Z,23.30
2018-08-07T01:50:36.943Z,23.30
2018-08-07T01:53:05.065Z,23.30
2018-08-07T01:55:33.191Z,23.30
2018-08-07T01:58:01.366Z,23.30
2018-08-07T02:00:29.535Z,23.30
2018-08-07T02:02:57.829Z,23.30
2018-08-07T02:05:25.966Z,23.30
2018-08-07T02:07:54.065Z,23.30
2018-08-07T02:10:22.232Z,23.20
2018-08-07T02:12:50.334Z,23.20
2018-08-07T02:15:18.421Z,23.10
2018-08-07T02:17:46.535Z,23.10
2018-08-07T02:20:16.009Z,23.10
2018-08-07T02:22:44.857Z,23.00
2018-08-07T02:25:14.497Z,22.90
2018-08-07T02:27:43.472Z,22.80
2018-08-07T02:30:12.731Z,22.70
2018-08-07T02:32:40.854Z,22.60
2018-08-07T02:35:10.642Z,22.60
2018-08-07T02:37:39.035Z,22.60
2018-08-07T02:40:08.327Z,22.70
2018-08-07T02:42:36.453Z,22.70
2018-08-07T02:45:06.803Z,22.60
2018-08-07T02:47:34.929Z,22.60
2018-08-07T02:50:03.131Z,22.50
2018-08-07T02:52:31.230Z,22.50
2018-08-07T02:54:59.364Z,22.50
2018-08-07T02:57:27.475Z,22.40
2018-08-07T02:59:55.587Z,22.40
2018-08-07T03:02:23.706Z,22.40
2018-08-07T03:04:51.818Z,22.30
2018-08-07T03:07:19.934Z,22.30
2018-08-07T03:09:48.021Z,22.30
2018-08-07T03:12:16.139Z,22.20
2018-08-07T03:17:12.222Z,22.20
2018-08-07T03:19:40.319Z,22.10
2018-08-07T03:22:08.494Z,22.10
2018-08-07T03:24:36.613Z,22.10
2018-08-07T03:27:04.941Z,22.10
2018-08-07T03:29:33.061Z,22.10
2018-08-07T03:32:01.187Z,22.10
2018-08-07T03:34:29.334Z,22.00
2018-08-07T03:36:57.432Z,22.00
2018-08-07T03:39:25.594Z,21.90
2018-08-07T03:41:53.689Z,22.00
2018-08-07T03:44:21.850Z,22.00
2018-08-07T03:46:49.974Z,21.90
2018-08-07T03:49:18.107Z,22.00
2018-08-07T03:51:46.206Z,22.00
2018-08-07T03:54:14.332Z,21.90
2018-08-07T03:56:42.433Z,22.00
2018-08-07T03:59:16.964Z,22.00
2018-08-07T04:01:45.076Z,21.90
2018-08-07T04:04:13.185Z,21.90
2018-08-07T04:06:41.493Z,21.90
2018-08-07T04:09:11.670Z,21.90
2018-08-07T04:11:39.868Z,21.90
2018-08-07T04:14:08.439Z,21.90
2018-08-07T04:16:36.560Z,22.00
2018-08-07T04:19:04.675Z,22.00
2018-08-07T04:21:32.780Z,22.00
2018-08-07T04:24:00.930Z,22.00
2018-08-07T04:26:29.050Z,22.00
2018-08-07T04:28:57.378Z,22.00
2018-08-07T04:31:25.518Z,22.00
2018-08-07T04:33:53.703Z,22.00
2018-08-07T04:36:21.885Z,22.00
2018-08-07T04:38:50.010Z,21.90
2018-08-07T04:41:18.102Z,21.80
2018-08-07T04:43:46.193Z,21.90
2018-08-07T04:46:14.335Z,21.90
2018-08-07T04:48:42.447Z,22.00
2018-08-07T04:51:10.597Z,22.00
2018-08-07T04:53:38.734Z,22.00
2018-08-07T04:56:06.845Z,22.00
2018-08-07T04:58:34.974Z,22.00
2018-08-07T05:01:03.079Z,22.00
2018-08-07T05:03:31.179Z,22.00
2018-08-07T05:05:59.295Z,22.00
2018-08-07T05:08:27.821Z,22.00
2018-08-07T05:10:55.950Z,22.00
2018-08-07T05:13:24.066Z,22.00
2018-08-07T05:15:52.214Z,22.00
2018-08-07T05:18:20.326Z,22.10
2018-08-07T05:20:48.421Z,22.10
2018-08-07T05:23:16.522Z,22.20
2018-08-07T05:25:44.629Z,22.20
2018-08-07T05:28:12.747Z,22.20
2018-08-07T05:30:40.838Z,22.30
2018-08-07T05:33:08.962Z,22.30
2018-08-07T05:35:37.071Z,22.30
2018-08-07T05:38:05.193Z,22.40
2018-08-07T05:40:33.333Z,22.40
2018-08-07T05:43:01.648Z,22.50
2018-08-07T05:45:29.770Z,22.60
2018-08-07T05:47:57.898Z,22.60
2018-08-07T05:50:26.132Z,22.70
2018-08-07T05:52:54.170Z,22.70
2018-08-07T05:55:22.294Z,22.80
2018-08-07T05:57:50.424Z,22.80
2018-08-07T06:00:19.677Z,22.90
2018-08-07T06:02:49.139Z,23.00
2018-08-07T06:05:17.553Z,23.00
2018-08-07T06:07:46.026Z,23.10
2018-08-07T06:10:14.509Z,23.20
2018-08-07T06:12:42.790Z,23.20
2018-08-07T06:15:13.824Z,23.20
2018-08-07T06:17:42.831Z,23.30
2018-08-07T06:20:11.499Z,23.40
2018-08-07T06:22:39.887Z,23.40
2018-08-07T06:25:08.999Z,23.50
2018-08-07T06:27:37.529Z,23.50
2018-08-07T06:30:08.924Z,23.60
2018-08-07T06:32:37.034Z,23.70
2018-08-07T06:35:05.838Z,23.70
2018-08-07T06:37:33.974Z,23.80
2018-08-07T06:40:02.311Z,23.80
2018-08-07T06:42:30.561Z,23.80
2018-08-07T06:44:58.679Z,23.90
2018-08-07T06:47:26.801Z,23.90
2018-08-07T06:49:54.938Z,24.00
2018-08-07T06:52:23.067Z,24.10
2018-08-07T06:54:51.165Z,24.20
2018-08-07T06:57:19.285Z,24.30
2018-08-07T06:59:47.395Z,24.30
2018-08-07T07:02:15.502Z,24.30
2018-08-07T07:04:43.619Z,24.30
2018-08-07T07:07:11.741Z,24.30
2018-08-07T07:12:07.789Z,24.40
2018-08-07T07:14:35.898Z,24.50
2018-08-07T07:17:04.007Z,24.50
2018-08-07T07:19:32.128Z,24.60
2018-08-07T07:22:00.279Z,24.60
2018-08-07T07:24:28.406Z,24.60
2018-08-07T07:26:57.354Z,24.70
2018-08-07T07:29:25.530Z,24.80
2018-08-07T07:31:53.569Z,24.90
2018-08-07T07:34:21.732Z,25.00
2018-08-07T07:36:49.803Z,25.10
2018-08-07T07:39:17.920Z,25.30
2018-08-07T07:41:46.034Z,25.30
2018-08-07T07:44:14.174Z,25.40
2018-08-07T07:46:42.443Z,25.40
2018-08-07T07:49:10.486Z,25.40
2018-08-07T07:51:38.613Z,25.50
2018-08-07T07:54:06.777Z,25.60
2018-08-07T07:56:34.839Z,25.60
2018-08-07T07:59:02.958Z,25.70
2018-08-07T08:01:31.083Z,25.90
2018-08-07T08:03:59.185Z,26.10
2018-08-07T08:06:27.313Z,26.20
2018-08-07T08:08:55.428Z,26.30
2018-08-07T08:11:23.544Z,26.40
2018-08-07T08:13:51.640Z,26.40
2018-08-07T08:16:19.765Z,26.60
2018-08-07T08:18:47.863Z,26.70
2018-08-07T08:21:15.973Z,26.80
2018-08-07T08:23:44.093Z,26.90
2018-08-07T08:26:12.208Z,27.00
2018-08-07T08:28:40.316Z,27.00
2018-08-07T08:31:08.419Z,27.10
2018-08-07T08:33:36.526Z,27.10
2018-08-07T08:36:04.633Z,27.10
2018-08-07T08:38:32.794Z,27.20
2018-08-07T08:43:28.826Z,27.50
2018-08-07T08:45:56.918Z,27.60
2018-08-07T08:48:25.037Z,27.60
2018-08-07T08:50:53.159Z,27.70
2018-08-07T08:55:49.200Z,28.00
2018-08-07T08:58:17.317Z,28.10
2018-08-07T09:00:45.469Z,28.20
2018-08-07T09:03:13.571Z,28.30
2018-08-07T09:05:41.677Z,28.40
2018-08-07T09:08:09.813Z,28.50
2018-08-07T09:10:38.168Z,28.60
2018-08-07T09:13:06.201Z,28.80
2018-08-07T09:15:34.316Z,28.90
2018-08-07T09:18:02.425Z,29.00
2018-08-07T09:20:31.513Z,29.20
2018-08-07T09:22:59.776Z,29.30
2018-08-07T09:25:29.183Z,29.40
2018-08-07T09:27:57.290Z,29.50
2018-08-07T09:30:26.754Z,29.60
2018-08-07T09:32:55.484Z,29.70
2018-08-07T09:35:24.125Z,29.80
2018-08-07T09:37:52.489Z,30.00
2018-08-07T09:40:21.498Z,30.10
2018-08-07T09:42:50.898Z,30.20
2018-08-07T09:45:21.839Z,30.30
2018-08-07T09:47:50.000Z,30.40
2018-08-07T09:50:18.795Z,30.60
2018-08-07T09:52:47.490Z,30.70
2018-08-07T09:55:15.751Z,30.80
2018-08-07T09:57:43.854Z,30.90
2018-08-07T10:00:20.803Z,31.10
2018-08-07T10:02:53.806Z,31.20
2018-08-07T10:05:23.540Z,31.20
2018-08-07T10:07:51.619Z,31.30
2018-08-07T10:10:20.258Z,31.40
2018-08-07T10:12:48.378Z,31.50
2018-08-07T10:15:16.915Z,31.60
2018-08-07T10:17:45.065Z,31.70
2018-08-07T10:20:13.838Z,31.80
2018-08-07T10:22:42.658Z,31.90
2018-08-07T10:25:13.231Z,31.90
2018-08-07T10:27:42.604Z,32.00
2018-08-07T10:30:16.296Z,32.10
2018-08-07T10:32:44.522Z,32.20
2018-08-07T10:35:13.142Z,32.30
2018-08-07T10:37:42.146Z,32.40
2018-08-07T10:40:13.591Z,32.40
2018-08-07T10:42:41.861Z,32.50
2018-08-07T10:45:16.813Z,32.60
2018-08-07T10:47:44.982Z,32.70
2018-08-07T10:50:17.353Z,32.80
2018-08-07T10:52:45.926Z,32.90
2018-08-07T10:55:14.039Z,33.00
2018-08-07T10:57:44.116Z,33.00
2018-08-07T11:00:17.346Z,33.10
2018-08-07T11:02:46.501Z,33.20
2018-08-07T11:05:14.870Z,33.20
2018-08-07T11:07:43.594Z,33.30
2018-08-07T11:10:12.721Z,33.50
2018-08-07T11:12:41.342Z,33.60
2018-08-07T11:15:23.542Z,33.60
2018-08-07T11:17:52.668Z,33.70
2018-08-07T11:20:20.947Z,33.70
2018-08-07T11:22:50.221Z,33.70
2018-08-07T11:25:19.609Z,33.80
2018-08-07T11:27:47.761Z,33.90
2018-08-07T11:30:18.480Z,34.00
2018-08-07T11:32:46.895Z,34.10
2018-08-07T11:35:15.487Z,34.20
2018-08-07T11:37:46.121Z,34.30
2018-08-07T11:40:16.910Z,34.40
2018-08-07T11:42:45.959Z,34.50
2018-08-07T11:45:15.273Z,34.60
2018-08-07T11:47:43.429Z,34.70
2018-08-07T11:50:14.781Z,34.60
2018-08-07T11:52:43.010Z,34.70
2018-08-07T11:55:13.164Z,34.80
2018-08-07T11:57:41.273Z,34.90
2018-08-07T12:00:25.286Z,35.00
2018-08-07T12:02:53.429Z,35.00
2018-08-07T12:05:21.546Z,35.00
2018-08-07T12:10:18.585Z,35.10
2018-08-07T12:12:46.952Z,35.10
2018-08-07T12:15:17.383Z,35.20
2018-08-07T12:17:45.661Z,35.30
2018-08-07T12:20:13.833Z,35.30
2018-08-07T12:22:41.981Z,35.40
2018-08-07T12:25:11.721Z,35.50
2018-08-07T12:27:39.897Z,35.60
2018-08-07T12:30:13.693Z,35.60
2018-08-07T12:32:41.789Z,35.60
2018-08-07T12:35:10.281Z,35.70
2018-08-07T12:37:38.810Z,35.80
2018-08-07T12:40:11.446Z,35.80
2018-08-07T12:42:39.587Z,35.90
2018-08-07T12:45:08.152Z,36.20
2018-08-07T12:47:36.645Z,36.80
2018-08-07T12:50:06.250Z,37.60
2018-08-07T12:52:34.493Z,37.50
2018-08-07T12:55:02.622Z,37.80
2018-08-07T12:59:58.825Z,38.50
2018-08-07T13:02:26.924Z,38.50
2018-08-07T13:07:25.117Z,39.70
2018-08-07T13:12:21.557Z,39.80
2018-08-07T13:14:49.924Z,40.20
2018-08-07T13:17:18.250Z,40.40
2018-08-07T13:19:46.331Z,40.50
2018-08-07T13:22:14.477Z,40.80
2018-08-07T13:27:10.518Z,41.20
2018-08-07T13:29:38.650Z,40.90
2018-08-07T13:32:06.805Z,40.60
2018-08-07T13:34:35.314Z,40.20
2018-08-07T13:37:03.515Z,39.60
2018-08-07T13:39:31.628Z,39.10
2018-08-07T13:41:59.902Z,38.70
2018-08-07T13:44:28.038Z,38.20
2018-08-07T13:46:56.245Z,37.80
2018-08-07T13:49:24.415Z,37.50
2018-08-07T13:51:52.543Z,37.10
2018-08-07T13:56:48.607Z,36.80
2018-08-07T13:59:16.735Z,36.40
2018-08-07T14:01:44.888Z,36.10
2018-08-07T14:04:13.005Z,35.90
2018-08-07T14:06:41.130Z,35.70
2018-08-07T14:09:09.630Z,35.60
2018-08-07T14:11:37.714Z,35.60
2018-08-07T14:16:33.734Z,35.50
2018-08-07T14:19:02.198Z,35.40
2018-08-07T14:21:30.381Z,35.30
2018-08-07T14:23:58.498Z,35.50
2018-08-07T14:26:26.621Z,35.70
2018-08-07T14:28:54.766Z,36.00
2018-08-07T14:31:22.943Z,36.00
2018-08-07T14:33:51.202Z,36.10
2018-08-07T14:36:19.318Z,36.00
2018-08-07T14:38:47.418Z,36.00
2018-08-07T14:43:43.436Z,36.00
2018-08-07T14:46:11.608Z,36.00
2018-08-07T14:48:39.702Z,35.80
2018-08-07T14:51:09.092Z,35.80
2018-08-07T14:53:37.199Z,36.00
2018-08-07T14:56:05.810Z,35.90
2018-08-07T14:58:33.907Z,36.00
2018-08-07T15:01:02.209Z,36.10
2018-08-07T15:05:58.526Z,36.30
2018-08-07T15:08:26.772Z,36.30
2018-08-07T15:10:54.893Z,36.40
2018-08-07T15:13:23.546Z,36.30
2018-08-07T15:15:51.705Z,36.10
2018-08-07T15:18:19.813Z,36.00
2018-08-07T15:20:48.008Z,35.70
2018-08-07T15:23:16.034Z,35.60
2018-08-07T15:25:44.178Z,35.50
2018-08-07T15:28:12.281Z,35.40
2018-08-07T15:30:40.405Z,35.30
2018-08-07T15:33:09.398Z,35.20
2018-08-07T15:35:37.511Z,35.10
2018-08-07T15:38:05.646Z,35.00
2018-08-07T15:40:33.750Z,35.00
2018-08-07T15:43:01.858Z,35.00
2018-08-07T15:45:29.985Z,35.10
2018-08-07T15:47:58.054Z,35.10
2018-08-07T15:50:26.155Z,35.00
2018-08-07T15:52:55.244Z,35.00
2018-08-07T15:55:24.833Z,34.90
2018-08-07T15:57:53.018Z,34.80
2018-08-07T16:00:24.772Z,34.70
2018-08-07T16:02:53.219Z,34.70
2018-08-07T16:05:21.337Z,34.60
2018-08-07T16:07:50.569Z,34.60
2018-08-07T16:10:19.401Z,34.50
2018-08-07T16:12:48.594Z,34.50
2018-08-07T16:15:16.709Z,34.50
2018-08-07T16:17:46.097Z,34.50
2018-08-07T16:20:14.207Z,34.50
2018-08-07T16:22:42.389Z,34.60
2018-08-07T16:25:12.154Z,34.60
2018-08-07T16:27:41.393Z,34.60
2018-08-07T16:30:17.187Z,34.50
2018-08-07T16:32:45.177Z,34.50
2018-08-07T16:35:13.933Z,34.40
2018-08-07T16:37:42.313Z,34.30
2018-08-07T16:40:13.915Z,34.30
2018-08-07T16:42:42.039Z,34.20
2018-08-07T16:45:11.823Z,34.20
2018-08-07T16:47:40.541Z,34.10
2018-08-07T16:50:11.042Z,34.00
2018-08-07T16:52:39.207Z,34.00
2018-08-07T16:55:08.289Z,33.90
2018-08-07T16:57:36.389Z,33.90
2018-08-07T17:00:06.578Z,33.80
2018-08-07T17:02:34.689Z,33.80
2018-08-07T17:05:02.791Z,33.70
2018-08-07T17:07:30.922Z,33.60
2018-08-07T17:09:59.028Z,33.50
2018-08-07T17:12:27.136Z,33.40
2018-08-07T17:14:55.232Z,33.20
2018-08-07T17:17:23.333Z,33.10
2018-08-07T17:19:51.432Z,33.10
2018-08-07T17:22:19.561Z,33.10
2018-08-07T17:24:47.665Z,33.10
2018-08-07T17:27:15.790Z,33.10
2018-08-07T17:29:43.908Z,33.20
2018-08-07T17:32:12.024Z,33.20
2018-08-07T17:34:40.126Z,33.10
2018-08-07T17:37:08.277Z,33.10
2018-08-07T17:39:36.424Z,33.00
2018-08-07T17:42:04.603Z,32.90
2018-08-07T17:44:32.898Z,32.90
2018-08-07T17:47:01.055Z,32.90
2018-08-07T17:54:25.094Z,32.60
2018-08-07T17:56:53.236Z,32.60
2018-08-07T17:59:21.468Z,32.50
2018-08-07T18:01:49.588Z,32.40
2018-08-07T18:04:17.810Z,32.40
2018-08-07T18:06:46.006Z,32.30
2018-08-07T18:09:14.100Z,32.20
2018-08-07T18:11:42.334Z,32.10
2018-08-07T18:16:38.482Z,32.00
2018-08-07T18:19:06.716Z,31.90
2018-08-07T18:21:34.867Z,31.80
2018-08-07T18:24:03.040Z,31.70
2018-08-07T18:26:31.440Z,31.70
2018-08-07T18:28:59.629Z,31.60
2018-08-07T18:31:27.758Z,31.60
2018-08-07T18:33:55.880Z,31.50
2018-08-07T18:36:23.974Z,31.50
2018-08-07T18:41:19.980Z,31.50
2018-08-07T18:43:48.139Z,31.40
2018-08-07T18:46:16.936Z,31.30
2018-08-07T18:48:45.382Z,31.20
2018-08-07T18:51:14.904Z,31.20
2018-08-07T18:53:42.881Z,31.20
2018-08-07T18:56:11.013Z,31.10
2018-08-07T18:58:39.151Z,31.10
2018-08-07T19:01:07.287Z,31.00
2018-08-07T19:03:35.458Z,30.90
2018-08-07T19:06:03.522Z,30.60
2018-08-07T19:08:31.698Z,30.50
2018-08-07T19:10:59.846Z,30.30
2018-08-07T19:13:28.995Z,30.30
2018-08-07T19:15:57.146Z,30.30
2018-08-07T19:18:25.341Z,30.40
2018-08-07T19:20:53.405Z,30.40
2018-08-07T19:23:21.534Z,30.40
2018-08-07T19:25:49.630Z,30.20
2018-08-07T19:28:17.722Z,30.20
2018-08-07T19:30:45.869Z,30.20
2018-08-07T19:33:14.030Z,30.10
2018-08-07T19:35:42.147Z,30.10
2018-08-07T19:38:10.322Z,30.00
2018-08-07T19:40:38.437Z,29.90
2018-08-07T19:43:06.837Z,29.70
2018-08-07T19:45:34.957Z,29.70
2018-08-07T19:48:03.167Z,29.60
2018-08-07T19:50:31.338Z,29.50
2018-08-07T19:52:59.598Z,29.50
2018-08-07T19:55:28.318Z,29.40
2018-08-07T19:57:56.477Z,29.40
2018-08-07T20:00:27.545Z,29.40
2018-08-07T20:02:56.953Z,29.40
2018-08-07T20:05:25.508Z,29.40
2018-08-07T20:07:54.621Z,29.50
2018-08-07T20:10:22.989Z,29.50
2018-08-07T20:12:51.293Z,29.50
2018-08-07T20:15:21.481Z,29.50
2018-08-07T20:17:50.183Z,29.40
2018-08-07T20:20:18.453Z,29.40
2018-08-07T20:22:46.592Z,29.40
2018-08-07T20:25:14.719Z,29.30
2018-08-07T20:27:42.834Z,29.30
2018-08-07T20:30:13.089Z,29.30
2018-08-07T20:32:41.430Z,29.20
2018-08-07T20:35:09.735Z,29.20
2018-08-07T20:37:37.978Z,29.20
2018-08-07T20:40:17.666Z,29.10
2018-08-07T20:42:45.946Z,29.10
2018-08-07T20:45:14.539Z,29.00
2018-08-07T20:47:42.657Z,28.90
2018-08-07T20:50:14.821Z,28.90
2018-08-07T20:52:44.011Z,28.90
2018-08-07T20:55:12.454Z,28.80
2018-08-07T20:57:40.609Z,28.80
2018-08-07T21:00:11.954Z,28.70
2018-08-07T21:02:40.118Z,28.70
2018-08-07T21:05:08.674Z,28.60
2018-08-07T21:07:36.922Z,28.60
2018-08-07T21:10:06.309Z,28.60
2018-08-07T21:12:34.449Z,28.60
2018-08-07T21:15:02.940Z,28.50
2018-08-07T21:17:31.041Z,28.40
2018-08-07T21:19:59.173Z,28.30
2018-08-07T21:22:27.306Z,28.30
2018-08-07T21:24:55.426Z,28.20
2018-08-07T21:27:23.538Z,28.20
2018-08-07T21:32:19.607Z,28.10
2018-08-07T21:34:47.805Z,28.00
2018-08-07T21:37:15.926Z,27.90
2018-08-07T21:39:44.142Z,27.80
2018-08-07T21:42:12.249Z,27.70
2018-08-07T21:47:08.357Z,27.50
2018-08-07T21:49:37.285Z,27.50
2018-08-07T21:52:05.500Z,27.40
2018-08-07T21:54:33.717Z,27.40
2018-08-07T21:57:01.834Z,27.30
2018-08-07T21:59:29.959Z,27.40
2018-08-07T22:01:58.085Z,27.30
2018-08-07T22:04:26.193Z,27.30
2018-08-07T22:06:54.286Z,27.30
2018-08-07T22:09:22.394Z,27.30
2018-08-07T22:11:50.492Z,27.30
2018-08-07T22:14:18.615Z,27.30
2018-08-07T22:16:46.737Z,27.30
2018-08-07T22:19:14.842Z,27.20
2018-08-07T22:21:42.949Z,27.20
2018-08-07T22:24:11.069Z,27.20
2018-08-07T22:26:39.224Z,27.00
2018-08-07T22:29:07.417Z,27.00
2018-08-07T22:31:35.650Z,26.90
2018-08-07T22:34:03.703Z,27.00
2018-08-07T22:36:31.842Z,27.00
2018-08-07T22:38:59.993Z,27.00
2018-08-07T22:41:28.093Z,27.00
2018-08-07T22:46:24.104Z,26.90
2018-08-07T22:48:52.272Z,26.80
2018-08-07T22:51:20.411Z,26.80
2018-08-07T22:53:48.790Z,26.80
2018-08-07T22:56:16.901Z,26.70
2018-08-07T22:58:45.018Z,26.70
2018-08-07T23:01:13.144Z,26.60
2018-08-07T23:03:41.639Z,26.60
2018-08-07T23:06:09.789Z,26.50
2018-08-07T23:08:37.906Z,26.40
2018-08-07T23:11:06.248Z,26.40
2018-08-07T23:13:34.395Z,26.30
2018-08-07T23:16:02.521Z,26.30
2018-08-07T23:18:30.660Z,26.20
2018-08-07T23:20:58.862Z,26.20
2018-08-07T23:23:26.942Z,26.20
2018-08-07T23:25:55.121Z,26.10
2018-08-07T23:28:23.264Z,26.00
2018-08-07T23:30:51.374Z,25.90
2018-08-07T23:33:19.499Z,25.80
2018-08-07T23:35:47.646Z,25.70
2018-08-07T23:38:15.861Z,25.70
2018-08-07T23:40:44.017Z,25.60
2018-08-07T23:43:12.165Z,25.50
2018-08-07T23:45:40.385Z,25.40
2018-08-07T23:48:08.558Z,25.40
2018-08-07T23:50:36.705Z,25.30
2018-08-07T23:53:05.100Z,25.30
2018-08-07T23:55:33.248Z,25.30
2018-08-07T23:58:01.379Z,25.20
